Time;durP1;ratioP1;P1;durP2;ratioP2;P2;SDS_P1;SDS_P2;PMS_P1;PMS_P2;Temp;Humidity;BMP_temperature;BMP_pressure;BME280_temperature;BME280_humidity;BME280_pressure;Samples;Min_cycle;Max_cycle;Signal;HPM_P1;HPM_P2
2022/10/18 00:01:43;;;;;;;27.23;17.87;;;18.60;99.90;;;;;;5033184;28;20546;-89
2022/10/18 00:04:14;;;;;;;20.60;16.90;;;18.60;99.90;;;;;;5016257;28;20574;-89
2022/10/18 00:06:45;;;;;;;26.07;17.70;;;18.60;99.90;;;;;;5033285;28;20539;-89
2022/10/18 00:09:17;;;;;;;25.70;17.57;;;18.50;99.90;;;;;;5032919;28;20236;-89
2022/10/18 00:11:48;;;;;;;23.40;17.13;;;18.40;99.90;;;;;;5032278;28;20216;-89
2022/10/18 00:14:21;;;;;;;21.70;16.87;;;18.40;99.90;;;;;;5036068;28;20220;-88
2022/10/18 00:16:52;;;;;;;21.47;16.80;;;18.30;99.90;;;;;;5036715;28;20926;-89
2022/10/18 00:19:22;;;;;;;25.37;16.93;;;18.30;99.90;;;;;;5036656;28;20331;-89
2022/10/18 00:21:58;;;;;;;21.80;16.50;;;18.30;99.90;;;;;;5035591;28;20232;-89
2022/10/18 00:24:29;;;;;;;21.90;17.13;;;18.20;99.90;;;;;;5036061;28;20229;-92
2022/10/18 00:27:00;;;;;;;26.30;17.53;;;18.10;99.90;;;;;;5034320;28;20212;-87
2022/10/18 00:29:34;;;;;;;25.03;16.47;;;18.10;99.90;;;;;;5035473;28;20649;-89
2022/10/18 00:32:07;;;;;;;23.37;16.13;;;18.00;99.90;;;;;;5033735;28;20208;-89
2022/10/18 00:34:39;;;;;;;24.47;16.90;;;17.90;99.90;;;;;;5019234;28;20216;-89
2022/10/18 00:37:10;;;;;;;21.60;15.73;;;17.90;99.90;;;;;;5036583;28;20224;-88
2022/10/18 00:39:41;;;;;;;23.13;16.67;;;17.80;99.90;;;;;;5035894;28;20228;-88
2022/10/18 00:42:16;;;;;;;22.87;15.60;;;17.70;99.90;;;;;;5035670;28;20209;-89
2022/10/18 00:45:16;;;;;;;23.40;15.90;;;17.60;99.90;;;;;;5037832;28;20209;-89
2022/10/18 00:47:53;;;;;;;23.07;16.33;;;17.50;99.90;;;;;;5016301;28;20202;-90
2022/10/18 00:50:25;;;;;;;22.83;16.70;;;17.40;99.90;;;;;;5018437;28;20233;-89
2022/10/18 00:52:59;;;;;;;25.90;16.77;;;17.30;99.90;;;;;;5015118;28;20226;-89
2022/10/18 00:55:33;;;;;;;21.80;16.53;;;17.20;99.90;;;;;;5016461;28;20214;-89
2022/10/18 00:58:06;;;;;;;24.47;15.60;;;17.00;99.90;;;;;;5017305;28;20654;-88
2022/10/18 01:00:40;;;;;;;24.47;16.37;;;16.90;99.90;;;;;;5015425;28;20206;-88
2022/10/18 01:03:11;;;;;;;19.90;15.47;;;16.80;99.90;;;;;;5014738;28;20214;-89
2022/10/18 01:05:49;;;;;;;24.87;16.27;;;16.70;99.90;;;;;;5030234;28;20668;-88
2022/10/18 01:09:04;;;;;;;26.80;16.10;;;16.60;99.90;;;;;;5036708;28;20216;-89
2022/10/18 01:11:50;;;;;;;23.13;16.67;;;16.50;99.90;;;;;;5030296;28;20211;-95
2022/10/18 01:14:36;;;;;;;25.03;16.57;;;16.40;99.90;;;;;;5036652;28;20207;-95
2022/10/18 01:17:16;;;;;;;26.97;16.97;;;16.30;99.90;;;;;;5036960;28;20209;-96
2022/10/18 01:20:17;;;;;;;27.60;16.27;;;16.20;99.90;;;;;;5048459;28;20181;-95
2022/10/18 01:22:56;;;;;;;27.93;17.57;;;16.10;99.90;;;;;;5046059;28;20215;-96
2022/10/18 01:25:41;;;;;;;20.13;16.43;;;16.10;99.90;;;;;;5019914;28;20245;-94
2022/10/18 01:28:31;;;;;;;26.53;16.77;;;16.00;99.90;;;;;;5036773;28;20220;-95
2022/10/18 01:31:07;;;;;;;26.47;16.83;;;15.90;99.90;;;;;;5036143;28;20239;-95
2022/10/18 01:33:43;;;;;;;23.07;16.63;;;15.80;99.90;;;;;;5035674;28;20219;-96
2022/10/18 01:36:20;;;;;;;26.87;17.43;;;15.70;99.90;;;;;;5036607;28;20646;-96
2022/10/18 01:38:55;;;;;;;18.67;15.77;;;15.70;99.90;;;;;;5035921;28;20661;-95
2022/10/18 01:41:28;;;;;;;22.77;16.77;;;15.60;99.90;;;;;;5036348;28;20215;-88
2022/10/18 01:44:04;;;;;;;23.63;16.23;;;15.60;99.90;;;;;;5018936;28;20208;-91
2022/10/18 01:46:41;;;;;;;25.00;16.43;;;15.50;99.90;;;;;;5022816;28;20208;-96
2022/10/18 01:49:14;;;;;;;24.10;16.53;;;15.50;99.90;;;;;;5021311;28;20233;-96
2022/10/18 01:51:45;;;;;;;24.83;16.13;;;15.40;99.90;;;;;;5033548;28;20213;-96
2022/10/18 01:54:23;;;;;;;25.03;17.33;;;15.40;99.90;;;;;;5035495;28;20221;-95
2022/10/18 01:57:00;;;;;;;21.60;15.77;;;15.30;99.90;;;;;;5037704;28;20276;-96
2022/10/18 01:59:51;;;;;;;22.33;15.17;;;15.20;99.90;;;;;;5040542;28;20211;-96
2022/10/18 02:02:36;;;;;;;19.87;15.17;;;15.20;99.90;;;;;;5037601;28;20249;-96
2022/10/18 02:05:16;;;;;;;30.93;14.73;;;15.10;99.90;;;;;;5036956;28;20197;-96
2022/10/18 02:07:53;;;;;;;21.17;14.93;;;15.00;99.90;;;;;;5021607;28;20215;-96
2022/10/18 02:10:47;;;;;;;21.10;14.13;;;14.90;99.90;;;;;;5024697;28;20323;-95
2022/10/18 02:13:21;;;;;;;24.47;14.70;;;14.90;99.90;;;;;;5039247;28;20215;-96
2022/10/18 02:15:59;;;;;;;17.13;14.17;;;14.80;99.90;;;;;;5035659;28;20545;-96
2022/10/18 02:18:40;;;;;;;18.97;13.47;;;14.80;99.90;;;;;;5036141;28;20228;-96
2022/10/18 02:21:16;;;;;;;24.73;13.93;;;14.70;99.90;;;;;;5021030;28;20200;-96
2022/10/18 02:23:49;;;;;;;18.23;13.80;;;14.70;99.90;;;;;;5019453;28;20212;-95
2022/10/18 02:26:21;;;;;;;19.60;14.17;;;14.70;99.90;;;;;;5038892;28;20706;-96
2022/10/18 02:28:52;;;;;;;18.07;14.10;;;14.60;99.90;;;;;;5037612;28;20331;-95
2022/10/18 02:31:30;;;;;;;22.40;14.80;;;14.60;99.90;;;;;;5036322;28;20743;-96
2022/10/18 02:34:11;;;;;;;21.13;14.67;;;14.50;99.90;;;;;;5035149;28;20213;-96
2022/10/18 02:36:51;;;;;;;22.83;14.90;;;14.40;99.90;;;;;;5036806;28;20213;-95
2022/10/18 02:39:28;;;;;;;24.97;14.57;;;14.50;99.90;;;;;;5037853;28;20209;-96
2022/10/18 02:42:00;;;;;;;20.50;14.00;;;14.50;99.90;;;;;;5036229;28;20216;-95
2022/10/18 02:44:31;;;;;;;21.17;13.57;;;14.40;99.90;;;;;;5019694;28;20209;-95
2022/10/18 02:47:03;;;;;;;18.20;12.67;;;14.40;99.90;;;;;;5025246;28;20292;-95
2022/10/18 02:49:36;;;;;;;21.53;13.47;;;14.40;99.90;;;;;;5049155;28;20323;-95
2022/10/18 02:52:07;;;;;;;20.57;14.53;;;14.30;99.90;;;;;;5051549;28;20269;-96
2022/10/18 02:54:39;;;;;;;25.67;13.70;;;14.20;99.90;;;;;;5044473;28;20763;-96
2022/10/18 02:57:11;;;;;;;22.10;14.33;;;14.20;99.90;;;;;;5043490;28;20207;-95
2022/10/18 02:59:43;;;;;;;16.83;13.03;;;14.10;99.90;;;;;;5024572;28;20296;-96
2022/10/18 03:02:15;;;;;;;16.17;12.93;;;14.10;99.90;;;;;;5041547;28;20231;-96
2022/10/18 03:04:50;;;;;;;18.57;13.23;;;14.10;99.90;;;;;;5019632;28;20212;-96
2022/10/18 03:07:22;;;;;;;19.93;13.60;;;14.00;99.90;;;;;;5040629;28;20249;-96
2022/10/18 03:09:54;;;;;;;19.83;13.53;;;14.00;99.90;;;;;;5019565;28;20775;-96
2022/10/18 03:12:29;;;;;;;19.03;13.93;;;13.90;99.90;;;;;;5035357;28;20200;-96
2022/10/18 03:15:01;;;;;;;17.73;12.90;;;13.90;99.90;;;;;;5037298;28;20579;-96
2022/10/18 03:17:33;;;;;;;20.60;13.80;;;13.80;99.90;;;;;;5027452;28;20280;-96
2022/10/18 03:20:08;;;;;;;23.33;14.13;;;13.80;99.90;;;;;;5037055;28;20209;-96
2022/10/18 03:22:39;;;;;;;16.90;13.23;;;13.80;99.90;;;;;;5036750;28;20194;-96
2022/10/18 03:25:12;;;;;;;19.20;13.07;;;13.70;99.90;;;;;;5055081;28;20212;-96
2022/10/18 03:27:44;;;;;;;19.97;13.57;;;13.70;99.90;;;;;;5053876;28;20215;-96
2022/10/18 03:30:15;;;;;;;18.20;13.07;;;13.70;99.90;;;;;;5035686;28;20228;-96
2022/10/18 03:32:48;;;;;;;27.43;14.13;;;13.60;99.90;;;;;;5018963;28;20215;-95
2022/10/18 03:35:21;;;;;;;18.70;13.37;;;13.60;99.90;;;;;;5039305;28;20347;-96
2022/10/18 03:37:54;;;;;;;17.70;12.57;;;13.60;99.90;;;;;;5035856;28;20200;-95
2022/10/18 03:40:25;;;;;;;20.13;12.87;;;13.60;99.90;;;;;;5048200;28;20201;-96
2022/10/18 03:42:56;;;;;;;17.03;12.87;;;13.50;99.90;;;;;;5061603;28;20543;-96
2022/10/18 03:45:28;;;;;;;18.90;12.77;;;13.60;99.90;;;;;;5035905;28;20216;-96
2022/10/18 03:48:01;;;;;;;15.97;12.13;;;13.50;99.90;;;;;;5023071;28;20209;-96
2022/10/18 03:50:35;;;;;;;16.50;13.17;;;13.50;99.90;;;;;;5039061;28;20328;-94
2022/10/18 03:53:07;;;;;;;17.60;13.03;;;13.40;99.90;;;;;;5036217;28;20216;-95
2022/10/18 03:55:38;;;;;;;19.77;12.67;;;13.40;99.90;;;;;;5021678;28;20205;-95
2022/10/18 03:58:11;;;;;;;18.60;13.07;;;13.30;99.90;;;;;;5031368;28;20208;-95
2022/10/18 04:00:42;;;;;;;18.37;13.43;;;13.30;99.90;;;;;;5015454;28;20206;-95
2022/10/18 04:03:13;;;;;;;18.07;13.27;;;13.30;99.90;;;;;;5021428;28;20243;-95
2022/10/18 04:05:48;;;;;;;21.27;13.43;;;13.30;99.90;;;;;;5019578;28;20684;-94
2022/10/18 04:08:20;;;;;;;21.17;13.90;;;13.20;99.90;;;;;;5037429;28;20212;-96
2022/10/18 04:10:51;;;;;;;19.07;12.47;;;13.20;99.90;;;;;;5038160;28;20232;-96
2022/10/18 04:13:22;;;;;;;20.90;12.90;;;13.20;99.90;;;;;;5038882;28;20284;-95
2022/10/18 04:15:54;;;;;;;20.70;13.97;;;13.10;99.90;;;;;;5018875;28;20205;-95
2022/10/18 04:18:26;;;;;;;19.33;13.77;;;13.10;99.90;;;;;;5036960;28;20224;-95
2022/10/18 04:21:00;;;;;;;18.10;12.67;;;13.10;99.90;;;;;;5025943;28;20209;-96
2022/10/18 04:23:32;;;;;;;19.73;13.07;;;13.00;99.90;;;;;;5021669;28;20204;-95
2022/10/18 04:26:08;;;;;;;21.97;13.90;;;13.00;99.90;;;;;;5039712;28;20240;-95
2022/10/18 04:28:39;;;;;;;25.47;14.73;;;13.00;99.90;;;;;;5022127;28;20205;-90
2022/10/18 04:31:11;;;;;;;18.70;12.30;;;13.00;99.90;;;;;;5039134;28;20276;-96
2022/10/18 04:33:43;;;;;;;18.00;13.13;;;13.00;99.90;;;;;;5025592;28;20216;-96
2022/10/18 04:36:17;;;;;;;20.57;13.57;;;13.00;99.90;;;;;;5040060;28;20219;-96
2022/10/18 04:38:49;;;;;;;22.43;12.97;;;13.00;99.90;;;;;;5042072;28;20354;-96
2022/10/18 04:41:20;;;;;;;19.37;12.97;;;13.00;99.90;;;;;;5024024;28;20216;-96
2022/10/18 04:43:52;;;;;;;19.97;13.80;;;12.90;99.90;;;;;;5036445;28;20213;-95
2022/10/18 04:46:23;;;;;;;20.00;13.27;;;12.90;99.90;;;;;;5022447;28;20209;-96
2022/10/18 04:48:55;;;;;;;20.03;13.73;;;12.80;99.90;;;;;;5040091;28;20205;-96
2022/10/18 04:51:29;;;;;;;22.00;13.77;;;12.80;99.90;;;;;;5019796;28;20236;-95
2022/10/18 04:54:01;;;;;;;18.77;13.23;;;12.80;99.90;;;;;;5038425;28;20213;-95
2022/10/18 04:56:32;;;;;;;19.90;13.33;;;12.80;99.90;;;;;;5046345;28;20219;-96
2022/10/18 04:59:03;;;;;;;20.33;13.90;;;12.80;99.90;;;;;;5040214;28;20209;-96
2022/10/18 05:01:36;;;;;;;20.00;13.73;;;12.90;99.90;;;;;;5042014;28;20244;-96
2022/10/18 05:04:08;;;;;;;19.17;12.83;;;12.80;99.90;;;;;;5037502;28;20669;-95
2022/10/18 05:06:43;;;;;;;17.90;13.87;;;12.70;99.90;;;;;;5037312;28;20216;-96
2022/10/18 05:09:14;;;;;;;20.60;13.50;;;12.60;99.90;;;;;;5037268;28;20224;-96
2022/10/18 05:11:47;;;;;;;18.47;13.70;;;12.60;99.90;;;;;;5035931;28;20244;-96
2022/10/18 05:14:18;;;;;;;20.03;13.57;;;12.60;99.90;;;;;;5033021;28;20207;-96
2022/10/18 05:16:51;;;;;;;22.07;13.37;;;12.60;99.90;;;;;;5035046;28;20673;-96
2022/10/18 05:19:23;;;;;;;17.20;13.73;;;12.50;99.90;;;;;;5036476;28;20204;-96
2022/10/18 05:21:58;;;;;;;20.30;14.10;;;12.50;99.90;;;;;;5039190;28;20204;-96
2022/10/18 05:24:29;;;;;;;20.13;14.60;;;12.50;99.90;;;;;;5027741;28;20211;-96
2022/10/18 05:27:00;;;;;;;23.43;14.33;;;12.50;99.90;;;;;;5024757;28;20316;-96
2022/10/18 05:29:32;;;;;;;23.57;13.67;;;12.50;99.90;;;;;;5037074;28;20213;-96
2022/10/18 05:32:04;;;;;;;20.23;13.77;;;12.50;99.90;;;;;;5035991;28;20236;-96
2022/10/18 05:34:36;;;;;;;18.23;13.23;;;12.50;99.90;;;;;;5021731;28;20209;-96
2022/10/18 05:37:10;;;;;;;22.10;13.60;;;12.50;99.90;;;;;;5038909;28;20213;-96
2022/10/18 05:39:42;;;;;;;26.57;13.73;;;12.40;99.90;;;;;;5043273;28;20200;-96
2022/10/18 05:42:14;;;;;;;22.17;13.70;;;12.40;99.90;;;;;;5038167;28;20240;-96
2022/10/18 05:44:45;;;;;;;20.50;13.80;;;12.40;99.90;;;;;;5039258;28;20215;-96
2022/10/18 05:47:17;;;;;;;20.10;14.20;;;12.40;99.90;;;;;;5018917;28;20221;-96
2022/10/18 05:49:49;;;;;;;16.77;13.20;;;12.40;99.90;;;;;;5036210;28;20205;-96
2022/10/18 05:52:23;;;;;;;19.77;13.07;;;12.40;99.90;;;;;;5018607;28;20243;-96
2022/10/18 05:54:55;;;;;;;22.00;13.03;;;12.40;99.90;;;;;;5019236;28;20315;-96
2022/10/18 05:57:26;;;;;;;20.63;13.80;;;12.40;99.90;;;;;;5037907;28;20209;-96
2022/10/18 05:59:59;;;;;;;19.13;13.47;;;12.40;99.90;;;;;;5051456;28;20212;-96
2022/10/18 06:02:32;;;;;;;18.57;13.33;;;12.30;99.90;;;;;;5043757;28;20197;-96
2022/10/18 06:05:04;;;;;;;21.67;13.00;;;12.30;99.90;;;;;;5021941;28;20268;-96
2022/10/18 06:07:39;;;;;;;20.43;13.77;;;12.30;99.90;;;;;;5003978;28;20225;-96
2022/10/18 06:10:12;;;;;;;20.07;12.80;;;12.30;99.90;;;;;;4984740;28;20205;-96
2022/10/18 06:12:43;;;;;;;19.17;12.97;;;12.30;99.90;;;;;;5016444;28;20240;-96
2022/10/18 06:15:15;;;;;;;25.80;12.83;;;12.30;99.90;;;;;;5017904;28;20612;-96
2022/10/18 06:17:47;;;;;;;19.07;12.60;;;12.20;99.90;;;;;;4998979;28;20657;-96
2022/10/18 06:20:19;;;;;;;17.63;12.07;;;12.20;99.90;;;;;;5016331;28;20213;-96
2022/10/18 06:22:54;;;;;;;21.57;13.27;;;12.20;99.90;;;;;;5030509;28;20202;-96
2022/10/18 06:25:26;;;;;;;15.37;12.53;;;12.10;99.90;;;;;;5019748;28;20608;-95
2022/10/18 06:27:57;;;;;;;21.43;13.03;;;12.10;99.90;;;;;;5029307;28;20662;-96
2022/10/18 06:30:30;;;;;;;20.13;12.27;;;12.10;99.90;;;;;;5040369;28;20339;-96
2022/10/18 06:33:01;;;;;;;17.67;12.53;;;12.00;99.90;;;;;;5038394;28;20236;-96
2022/10/18 06:35:32;;;;;;;16.53;12.57;;;12.00;99.90;;;;;;5038572;28;20219;-96
2022/10/18 06:38:06;;;;;;;18.63;13.30;;;12.00;99.90;;;;;;5036077;28;20209;-96
2022/10/18 06:40:39;;;;;;;20.57;13.23;;;11.90;99.90;;;;;;5035618;28;20219;-96
2022/10/18 06:43:13;;;;;;;18.70;13.07;;;11.90;99.90;;;;;;5034511;28;20212;-96
2022/10/18 06:45:50;;;;;;;19.87;12.00;;;11.90;99.90;;;;;;5019158;28;20217;-96
2022/10/18 06:48:21;;;;;;;19.40;13.13;;;11.80;99.90;;;;;;5035216;28;20220;-96
2022/10/18 06:50:55;;;;;;;18.60;12.17;;;11.80;99.90;;;;;;5035510;28;20236;-96
2022/10/18 06:53:30;;;;;;;20.97;13.30;;;11.90;99.90;;;;;;5033898;28;20236;-96
2022/10/18 06:56:04;;;;;;;21.87;13.53;;;11.80;99.90;;;;;;5035578;28;20216;-96
2022/10/18 06:58:35;;;;;;;18.20;13.03;;;11.80;99.90;;;;;;5035168;28;20277;-96
2022/10/18 07:01:09;;;;;;;19.20;12.87;;;11.80;99.90;;;;;;5035176;28;20208;-96
2022/10/18 07:03:40;;;;;;;19.70;13.77;;;11.70;99.90;;;;;;5034861;28;20240;-94
2022/10/18 07:06:13;;;;;;;20.50;13.70;;;11.70;99.90;;;;;;5036257;28;20207;-96
2022/10/18 07:08:47;;;;;;;16.83;12.57;;;11.70;99.90;;;;;;5034720;28;20212;-96
2022/10/18 07:11:22;;;;;;;19.73;13.27;;;11.70;99.90;;;;;;5034322;28;20197;-96
2022/10/18 07:13:59;;;;;;;20.30;13.73;;;11.70;99.90;;;;;;5034597;28;20240;-96
2022/10/18 07:16:31;;;;;;;19.73;13.53;;;11.70;99.90;;;;;;5035260;28;20209;-95
2022/10/18 07:19:03;;;;;;;19.73;12.97;;;11.70;99.90;;;;;;5034722;28;20205;-95
2022/10/18 07:21:36;;;;;;;24.03;14.27;;;11.70;99.90;;;;;;5034392;28;20213;-95
2022/10/18 07:24:12;;;;;;;23.70;13.30;;;11.70;99.90;;;;;;5037894;28;20209;-96
2022/10/18 07:26:43;;;;;;;19.60;13.57;;;11.70;99.90;;;;;;5038803;28;20204;-96
2022/10/18 07:29:14;;;;;;;21.73;13.57;;;11.70;99.90;;;;;;5038941;28;20209;-95
2022/10/18 07:31:45;;;;;;;22.60;13.97;;;11.70;99.90;;;;;;5037430;28;20216;-96
2022/10/18 07:34:16;;;;;;;23.67;14.03;;;11.70;99.90;;;;;;5038746;28;20215;-96
2022/10/18 07:36:49;;;;;;;17.37;14.13;;;11.70;99.90;;;;;;5042528;28;20196;-96
2022/10/18 07:39:23;;;;;;;22.10;13.77;;;11.60;99.90;;;;;;5052125;28;20204;-96
2022/10/18 07:41:55;;;;;;;23.23;14.27;;;11.60;99.90;;;;;;5057919;28;20211;-96
2022/10/18 07:44:27;;;;;;;23.43;14.27;;;11.60;99.90;;;;;;5064399;28;20258;-96
2022/10/18 07:46:59;;;;;;;19.73;14.43;;;11.60;99.90;;;;;;5059633;28;20204;-96
2022/10/18 07:49:30;;;;;;;20.90;14.00;;;11.50;99.90;;;;;;5047704;28;20289;-96
2022/10/18 07:52:01;;;;;;;20.87;13.80;;;11.50;99.90;;;;;;5039711;28;20208;-96
2022/10/18 07:54:34;;;;;;;23.77;14.73;;;11.50;99.90;;;;;;5041390;28;20544;-96
2022/10/18 07:57:06;;;;;;;22.00;15.30;;;11.50;99.90;;;;;;5040840;28;20584;-96
2022/10/18 07:59:38;;;;;;;23.20;15.50;;;11.40;99.90;;;;;;5039612;28;20205;-96
2022/10/18 08:02:10;;;;;;;20.93;13.93;;;11.30;99.90;;;;;;5040440;28;21033;-96
2022/10/18 08:04:42;;;;;;;20.97;14.90;;;11.30;99.90;;;;;;5038930;28;20220;-96
2022/10/18 08:07:13;;;;;;;24.07;14.27;;;11.40;99.90;;;;;;5040950;28;20211;-95
2022/10/18 08:09:46;;;;;;;24.93;15.83;;;11.40;99.90;;;;;;5026022;28;20564;-95
2022/10/18 08:12:19;;;;;;;23.87;15.07;;;11.30;99.90;;;;;;5049158;28;20188;-96
2022/10/18 08:14:50;;;;;;;19.70;13.97;;;11.30;99.90;;;;;;5058510;28;20212;-96
2022/10/18 08:17:21;;;;;;;21.43;14.53;;;11.20;99.90;;;;;;5058560;28;20196;-96
2022/10/18 08:19:53;;;;;;;24.93;14.83;;;11.20;99.90;;;;;;5058982;28;20219;-96
2022/10/18 08:22:41;;;;;;;24.87;16.17;;;11.20;99.90;;;;;;5047015;28;20220;-96
2022/10/18 08:25:16;;;;;;;24.00;15.37;;;11.20;99.90;;;;;;5022530;28;20205;-96
2022/10/18 08:27:47;;;;;;;25.87;17.67;;;11.20;99.90;;;;;;5040595;28;20254;-96
2022/10/18 08:30:22;;;;;;;23.30;16.67;;;11.20;99.90;;;;;;5039012;28;20304;-94
2022/10/18 08:32:54;;;;;;;22.53;17.43;;;11.20;99.90;;;;;;5038278;28;20236;-95
2022/10/18 08:35:26;;;;;;;31.60;18.33;;;11.20;99.90;;;;;;5038685;28;20299;-96
2022/10/18 08:37:59;;;;;;;28.37;20.77;;;11.20;99.90;;;;;;5039617;28;20219;-96
2022/10/18 08:40:35;;;;;;;31.90;23.27;;;11.20;99.90;;;;;;5022593;28;20200;-96
2022/10/18 08:43:12;;;;;;;34.37;23.10;;;11.10;99.90;;;;;;5032878;28;20208;-96
2022/10/18 08:45:52;;;;;;;32.13;23.47;;;11.00;99.90;;;;;;5058049;28;20224;-96
2022/10/18 08:48:32;;;;;;;35.17;24.77;;;11.00;99.90;;;;;;5057686;28;20216;-96
2022/10/18 08:51:09;;;;;;;33.87;25.27;;;10.90;99.90;;;;;;5058419;28;20185;-96
2022/10/18 08:53:52;;;;;;;38.03;24.37;;;10.90;99.90;;;;;;5057492;28;20279;-96
2022/10/18 08:56:28;;;;;;;36.77;25.73;;;10.90;99.90;;;;;;5058086;28;20252;-96
2022/10/18 08:58:59;;;;;;;33.73;26.33;;;10.90;99.90;;;;;;5059217;28;20212;-96
2022/10/18 09:01:43;;;;;;;38.57;27.90;;;10.90;99.90;;;;;;5058991;28;20204;-96
2022/10/18 09:04:37;;;;;;;45.03;29.43;;;10.80;99.90;;;;;;5058891;28;20211;-96
2022/10/18 09:07:29;;;;;;;40.47;28.73;;;10.80;99.90;;;;;;5056582;28;20231;-96
2022/10/18 09:10:06;;;;;;;39.07;28.83;;;10.70;99.90;;;;;;5044895;28;20532;-96
2022/10/18 09:13:03;;;;;;;40.27;29.10;;;10.80;99.90;;;;;;5025281;28;20268;-96
2022/10/18 09:15:46;;;;;;;36.57;28.13;;;10.70;99.90;;;;;;5043124;28;20192;-96
2022/10/18 09:18:51;;;;;;;43.07;31.00;;;10.70;99.90;;;;;;5019494;28;20217;-96
2022/10/18 09:21:28;;;;;;;43.97;30.30;;;10.70;99.90;;;;;;5037244;28;20205;-96
2022/10/18 09:24:07;;;;;;;42.80;32.33;;;10.60;99.90;;;;;;5020683;28;20567;-96
2022/10/18 09:26:45;;;;;;;45.30;32.40;;;10.60;99.90;;;;;;5040783;28;20287;-96
2022/10/18 09:29:45;;;;;;;46.20;32.57;;;10.60;99.90;;;;;;5043726;28;20205;-96
2022/10/18 09:32:29;;;;;;;43.63;31.43;;;10.60;99.90;;;;;;5027816;28;20211;-96
2022/10/18 09:35:06;;;;;;;44.27;33.13;;;10.60;99.90;;;;;;5048117;28;20335;-95
2022/10/18 09:37:39;;;;;;;46.07;32.70;;;10.60;99.90;;;;;;5046108;28;20208;-96
2022/10/18 09:40:18;;;;;;;48.77;34.60;;;10.60;99.90;;;;;;5045044;28;20216;-96
2022/10/18 09:42:56;;;;;;;49.20;34.90;;;10.60;99.90;;;;;;5047998;28;20223;-96
2022/10/18 09:45:36;;;;;;;47.90;35.77;;;10.60;99.90;;;;;;5047965;28;20216;-96
2022/10/18 09:48:14;;;;;;;49.17;36.67;;;10.60;99.90;;;;;;5049117;28;20205;-95
2022/10/18 09:50:50;;;;;;;52.90;35.77;;;10.50;99.90;;;;;;5047317;28;20201;-96
2022/10/18 09:53:27;;;;;;;51.63;37.43;;;10.50;99.90;;;;;;5048412;28;20236;-96
2022/10/18 09:56:03;;;;;;;51.40;39.70;;;10.50;99.90;;;;;;5047600;28;20219;-96
2022/10/18 09:58:44;;;;;;;55.27;39.93;;;10.50;99.90;;;;;;5050242;28;20216;-96
2022/10/18 10:01:20;;;;;;;54.07;38.70;;;10.50;99.90;;;;;;5052461;28;20205;-95
2022/10/18 10:03:51;;;;;;;53.93;38.83;;;10.40;99.90;;;;;;5051040;28;20201;-95
2022/10/18 10:06:29;;;;;;;55.57;40.23;;;10.40;99.90;;;;;;5042057;28;20207;-96
2022/10/18 10:09:02;;;;;;;56.77;39.87;;;10.30;99.90;;;;;;5039680;28;20230;-96
2022/10/18 10:11:37;;;;;;;52.33;38.27;;;10.30;99.90;;;;;;5037433;28;20220;-94
2022/10/18 10:14:15;;;;;;;56.20;40.23;;;10.30;99.90;;;;;;5039181;28;20229;-96
2022/10/18 10:16:53;;;;;;;52.53;38.60;;;10.30;99.90;;;;;;5041373;28;20196;-96
2022/10/18 10:19:32;;;;;;;53.87;38.87;;;10.30;99.90;;;;;;5026103;28;20215;-96
2022/10/18 10:22:07;;;;;;;57.00;39.20;;;10.30;99.90;;;;;;5036797;28;20253;-96
2022/10/18 10:24:50;;;;;;;54.93;38.57;;;10.30;99.90;;;;;;5037104;28;20212;-96
2022/10/18 10:27:31;;;;;;;52.80;38.83;;;10.30;99.90;;;;;;5019848;28;20216;-96
2022/10/18 10:30:04;;;;;;;57.13;39.00;;;10.20;99.90;;;;;;5037625;28;20207;-96
2022/10/18 10:32:49;;;;;;;55.40;37.67;;;10.10;99.90;;;;;;5034210;28;20270;-96
2022/10/18 10:35:30;;;;;;;50.83;37.10;;;10.10;99.90;;;;;;5043644;28;20250;-95
2022/10/18 10:38:26;;;;;;;53.00;38.33;;;10.10;99.90;;;;;;5033400;28;20215;-96
2022/10/18 10:40:59;;;;;;;47.03;36.13;;;10.10;99.90;;;;;;5020812;28;20208;-95
2022/10/18 10:43:34;;;;;;;46.97;36.40;;;10.10;99.90;;;;;;5009229;28;20208;-96
2022/10/18 10:46:14;;;;;;;49.77;36.33;;;10.10;99.90;;;;;;5042158;28;20225;-96
2022/10/18 10:48:56;;;;;;;46.23;35.50;;;10.10;99.90;;;;;;5036380;28;20213;-96
2022/10/18 10:51:55;;;;;;;44.77;33.13;;;10.10;99.90;;;;;;5037623;28;20220;-96
2022/10/18 10:54:47;;;;;;;48.23;34.63;;;10.10;99.90;;;;;;5046769;28;20284;-96
2022/10/18 10:57:25;;;;;;;49.23;35.20;;;10.10;99.90;;;;;;5040532;28;20725;-96
2022/10/18 10:59:58;;;;;;;49.27;35.17;;;10.00;99.90;;;;;;5021721;28;20204;-96
2022/10/18 11:02:35;;;;;;;50.03;34.67;;;10.00;99.90;;;;;;5035455;28;20217;-95
2022/10/18 11:05:30;;;;;;;50.07;34.23;;;9.90;99.90;;;;;;5025477;28;20221;-96
2022/10/18 11:08:09;;;;;;;47.67;32.90;;;9.80;99.90;;;;;;5015149;28;20263;-96
2022/10/18 11:10:57;;;;;;;46.00;33.20;;;9.90;99.90;;;;;;5035954;28;20200;-96
2022/10/18 11:13:40;;;;;;;45.50;33.90;;;9.90;99.90;;;;;;5035332;28;20212;-96
2022/10/18 11:16:17;;;;;;;47.40;33.27;;;9.90;99.90;;;;;;5036111;28;20220;-95
2022/10/18 11:18:53;;;;;;;44.77;31.47;;;9.90;99.90;;;;;;5038494;28;20209;-95
2022/10/18 11:21:30;;;;;;;46.80;33.13;;;9.90;99.90;;;;;;5037232;28;20231;-96
2022/10/18 11:24:06;;;;;;;50.40;33.07;;;9.90;99.90;;;;;;5035141;28;20665;-96
2022/10/18 11:26:45;;;;;;;43.57;31.20;;;9.90;99.90;;;;;;5037262;28;20226;-96
2022/10/18 11:29:41;;;;;;;45.40;32.17;;;9.90;99.90;;;;;;5037562;28;20217;-96
2022/10/18 11:32:21;;;;;;;42.20;31.03;;;9.80;99.90;;;;;;5037221;28;20201;-96
2022/10/18 11:35:07;;;;;;;44.93;31.00;;;9.80;99.90;;;;;;5037402;28;20232;-96
2022/10/18 11:37:55;;;;;;;41.50;29.73;;;9.80;99.90;;;;;;5021143;28;20219;-96
2022/10/18 11:40:50;;;;;;;41.73;29.80;;;9.80;99.90;;;;;;5036906;28;20209;-96
2022/10/18 11:43:27;;;;;;;42.23;30.63;;;9.80;99.90;;;;;;5021210;28;20216;-96
2022/10/18 11:46:26;;;;;;;45.03;30.70;;;9.80;99.90;;;;;;5037096;28;20216;-96
2022/10/18 11:49:28;;;;;;;39.20;28.90;;;9.80;99.90;;;;;;5036987;28;20232;-96
2022/10/18 11:52:11;;;;;;;40.60;28.57;;;9.80;99.90;;;;;;5037320;28;20204;-96
2022/10/18 11:55:02;;;;;;;39.27;28.43;;;9.80;99.90;;;;;;5025803;28;20236;-96
2022/10/18 11:57:47;;;;;;;43.93;28.30;;;9.70;99.90;;;;;;5043121;28;20201;-96
2022/10/18 12:00:38;;;;;;;41.40;29.20;;;9.70;99.90;;;;;;5040614;28;20292;-96
2022/10/18 12:03:30;;;;;;;37.73;28.30;;;9.70;99.90;;;;;;5024351;28;20213;-96
2022/10/18 12:06:07;;;;;;;38.63;28.47;;;9.70;99.90;;;;;;5040914;28;20248;-96
2022/10/18 12:08:41;;;;;;;39.37;27.80;;;9.60;99.90;;;;;;5039263;28;20208;-96
2022/10/18 12:11:22;;;;;;;40.67;28.07;;;9.60;99.90;;;;;;5023716;28;20204;-96
2022/10/18 12:13:57;;;;;;;39.57;27.37;;;9.60;99.90;;;;;;5039946;28;20197;-96
2022/10/18 12:16:32;;;;;;;37.90;27.80;;;9.60;99.90;;;;;;5041809;28;20691;-96
2022/10/18 12:19:23;;;;;;;38.30;27.63;;;9.60;99.90;;;;;;5043509;28;20296;-96
2022/10/18 12:21:58;;;;;;;38.67;27.57;;;9.60;99.90;;;;;;5040550;28;20247;-96
2022/10/18 12:24:33;;;;;;;37.37;27.00;;;9.60;99.90;;;;;;5024657;28;20284;-96
2022/10/18 12:27:08;;;;;;;36.60;27.80;;;9.60;99.90;;;;;;5041461;28;20208;-95
2022/10/18 12:29:46;;;;;;;37.67;27.60;;;9.50;99.90;;;;;;5027635;28;20212;-96
2022/10/18 12:32:22;;;;;;;36.70;29.03;;;9.50;99.90;;;;;;5039388;28;20260;-96
2022/10/18 12:34:57;;;;;;;41.80;28.70;;;9.40;99.90;;;;;;5042857;28;20224;-96
2022/10/18 12:38:00;;;;;;;39.17;26.67;;;9.40;99.90;;;;;;5047166;28;20664;-96
2022/10/18 12:40:40;;;;;;;36.57;26.83;;;9.40;99.90;;;;;;5054027;28;20197;-96
2022/10/18 12:43:22;;;;;;;33.70;26.67;;;9.40;99.90;;;;;;5053151;28;20236;-96
2022/10/18 12:45:57;;;;;;;39.13;28.60;;;9.40;99.90;;;;;;5031597;28;20297;-96
2022/10/18 12:48:33;;;;;;;38.53;28.57;;;9.30;99.90;;;;;;5051744;28;20199;-96
2022/10/18 12:51:15;;;;;;;40.70;30.20;;;9.30;99.90;;;;;;5077182;28;20208;-96
2022/10/18 12:53:54;;;;;;;38.07;30.10;;;9.30;99.90;;;;;;5078229;28;20276;-96
2022/10/18 12:56:42;;;;;;;43.27;30.83;;;9.30;99.90;;;;;;5074466;28;20291;-96
2022/10/18 12:59:50;;;;;;;47.33;31.27;;;9.30;99.90;;;;;;5065547;28;20542;-96
2022/10/18 13:02:28;;;;;;;45.17;33.00;;;9.20;99.90;;;;;;5063700;28;20247;-96
2022/10/18 13:05:01;;;;;;;45.87;32.40;;;9.20;99.90;;;;;;5047525;28;20231;-96
2022/10/18 13:07:54;;;;;;;48.60;32.53;;;9.30;99.90;;;;;;5034688;28;20228;-96
2022/10/18 13:10:38;;;;;;;44.60;31.53;;;9.30;99.90;;;;;;5032173;28;20268;-96
2022/10/18 13:13:58;;;;;;;43.47;32.13;;;9.30;99.90;;;;;;5032509;28;20211;-96
2022/10/18 13:16:40;;;;;;;45.97;32.73;;;9.30;99.90;;;;;;5058919;28;20308;-96